sensor_id;sensor_type;location;lat;lon;timestamp;temperature;humidity
48007;DHT22;33771;48.180;11.400;2023-12-20T00:02:09;5.60;99.90
48007;DHT22;33771;48.180;11.400;2023-12-20T00:04:35;5.60;99.90
48007;DHT22;33771;48.180;11.400;2023-12-20T00:07:00;5.50;99.90
48007;DHT22;33771;48.180;11.400;2023-12-20T00:09:26;5.50;99.90
48007;DHT22;33771;48.180;11.400;2023-12-20T00:11:52;5.40;99.90
48007;DHT22;33771;48.180;11.400;2023-12-20T00:14:18;5.40;99.90
48007;DHT22;33771;48.180;11.400;2023-12-20T00:16:43;5.40;99.90
48007;DHT22;33771;48.180;11.400;2023-12-20T00:19:09;5.30;99.90
48007;DHT22;33771;48.180;11.400;2023-12-20T00:21:34;5.30;99.90
48007;DHT22;33771;48.180;11.400;2023-12-20T00:24:00;5.30;99.90
48007;DHT22;33771;48.180;11.400;2023-12-20T00:26:25;5.20;99.90
48007;DHT22;33771;48.180;11.400;2023-12-20T00:28:51;5.30;99.90
48007;DHT22;33771;48.180;11.400;2023-12-20T00:31:17;5.30;99.90
48007;DHT22;33771;48.180;11.400;2023-12-20T00:33:42;5.30;99.90
48007;DHT22;33771;48.180;11.400;2023-12-20T00:36:09;5.20;99.90
48007;DHT22;33771;48.180;11.400;2023-12-20T00:38:35;5.30;99.90
48007;DHT22;33771;48.180;11.400;2023-12-20T00:41:00;5.30;99.90
48007;DHT22;33771;48.180;11.400;2023-12-20T00:43:26;5.30;99.90
48007;DHT22;33771;48.180;11.400;2023-12-20T00:45:52;5.30;99.90
48007;DHT22;33771;48.180;11.400;2023-12-20T00:48:17;5.30;99.90
48007;DHT22;33771;48.180;11.400;2023-12-20T00:50:43;5.40;99.90
48007;DHT22;33771;48.180;11.400;2023-12-20T00:53:08;5.40;99.90
48007;DHT22;33771;48.180;11.400;2023-12-20T00:55:34;5.50;99.90
48007;DHT22;33771;48.180;11.400;2023-12-20T00:57:59;5.50;99.90
48007;DHT22;33771;48.180;11.400;2023-12-20T01:00:25;5.50;99.90
48007;DHT22;33771;48.180;11.400;2023-12-20T01:02:51;5.50;99.90
48007;DHT22;33771;48.180;11.400;2023-12-20T01:05:17;5.60;99.90
48007;DHT22;33771;48.180;11.400;2023-12-20T01:07:43;5.60;99.90
48007;DHT22;33771;48.180;11.400;2023-12-20T01:10:08;5.60;99.90
48007;DHT22;33771;48.180;11.400;2023-12-20T01:12:36;5.60;99.90
48007;DHT22;33771;48.180;11.400;2023-12-20T01:15:02;5.70;99.90
48007;DHT22;33771;48.180;11.400;2023-12-20T01:17:27;5.70;99.90
48007;DHT22;33771;48.180;11.400;2023-12-20T01:19:53;5.70;99.90
48007;DHT22;33771;48.180;11.400;2023-12-20T01:22:18;5.80;99.90
48007;DHT22;33771;48.180;11.400;2023-12-20T01:24:44;5.70;99.90
48007;DHT22;33771;48.180;11.400;2023-12-20T01:27:10;5.70;99.90
48007;DHT22;33771;48.180;11.400;2023-12-20T01:29:35;5.70;99.90
48007;DHT22;33771;48.180;11.400;2023-12-20T01:32:01;5.70;99.90
48007;DHT22;33771;48.180;11.400;2023-12-20T01:34:26;5.80;99.90
48007;DHT22;33771;48.180;11.400;2023-12-20T01:36:52;5.80;99.90
48007;DHT22;33771;48.180;11.400;2023-12-20T01:39:17;5.80;99.90
48007;DHT22;33771;48.180;11.400;2023-12-20T01:41:43;5.80;99.90
48007;DHT22;33771;48.180;11.400;2023-12-20T01:44:09;5.80;99.90
48007;DHT22;33771;48.180;11.400;2023-12-20T01:46:34;5.80;99.90
48007;DHT22;33771;48.180;11.400;2023-12-20T01:49:00;5.90;99.90
48007;DHT22;33771;48.180;11.400;2023-12-20T01:51:26;5.90;99.90
48007;DHT22;33771;48.180;11.400;2023-12-20T01:53:55;5.80;99.90
48007;DHT22;33771;48.180;11.400;2023-12-20T01:56:21;5.80;99.90
48007;DHT22;33771;48.180;11.400;2023-12-20T01:58:47;5.80;99.90
48007;DHT22;33771;48.180;11.400;2023-12-20T02:01:13;5.80;99.90
48007;DHT22;33771;48.180;11.400;2023-12-20T02:03:42;5.90;99.90
48007;DHT22;33771;48.180;11.400;2023-12-20T02:06:09;5.80;99.90
48007;DHT22;33771;48.180;11.400;2023-12-20T02:08:35;5.90;99.90
48007;DHT22;33771;48.180;11.400;2023-12-20T02:11:01;5.80;99.90
48007;DHT22;33771;48.180;11.400;2023-12-20T02:13:27;5.90;99.90
48007;DHT22;33771;48.180;11.400;2023-12-20T02:15:53;5.80;99.90
48007;DHT22;33771;48.180;11.400;2023-12-20T02:18:19;5.80;99.90
48007;DHT22;33771;48.180;11.400;2023-12-20T02:20:45;5.80;99.90
48007;DHT22;33771;48.180;11.400;2023-12-20T02:23:10;5.80;99.90
48007;DHT22;33771;48.180;11.400;2023-12-20T02:25:36;5.90;99.90
48007;DHT22;33771;48.180;11.400;2023-12-20T02:28:03;5.90;99.90
48007;DHT22;33771;48.180;11.400;2023-12-20T02:30:29;5.90;99.90
48007;DHT22;33771;48.180;11.400;2023-12-20T02:32:55;5.90;99.90
48007;DHT22;33771;48.180;11.400;2023-12-20T02:35:20;5.90;99.90
48007;DHT22;33771;48.180;11.400;2023-12-20T02:37:46;5.90;99.90
48007;DHT22;33771;48.180;11.400;2023-12-20T02:40:12;5.90;99.90
48007;DHT22;33771;48.180;11.400;2023-12-20T02:42:37;5.90;99.90
48007;DHT22;33771;48.180;11.400;2023-12-20T02:45:03;5.90;99.90
48007;DHT22;33771;48.180;11.400;2023-12-20T02:47:28;5.90;99.90
48007;DHT22;33771;48.180;11.400;2023-12-20T02:49:55;5.90;99.90
48007;DHT22;33771;48.180;11.400;2023-12-20T02:52:22;5.90;99.90
48007;DHT22;33771;48.180;11.400;2023-12-20T02:54:48;6.00;99.90
48007;DHT22;33771;48.180;11.400;2023-12-20T02:57:13;6.00;99.90
48007;DHT22;33771;48.180;11.400;2023-12-20T02:59:39;6.00;99.90
48007;DHT22;33771;48.180;11.400;2023-12-20T03:02:05;6.00;99.90
48007;DHT22;33771;48.180;11.400;2023-12-20T03:04:30;6.00;99.90
48007;DHT22;33771;48.180;11.400;2023-12-20T03:06:56;6.00;99.90
48007;DHT22;33771;48.180;11.400;2023-12-20T03:09:21;6.10;99.90
48007;DHT22;33771;48.180;11.400;2023-12-20T03:11:47;6.10;99.90
48007;DHT22;33771;48.180;11.400;2023-12-20T03:14:12;6.10;99.90
48007;DHT22;33771;48.180;11.400;2023-12-20T03:16:38;6.20;99.90
48007;DHT22;33771;48.180;11.400;2023-12-20T03:19:03;6.20;99.90
48007;DHT22;33771;48.180;11.400;2023-12-20T03:21:29;6.20;99.90
48007;DHT22;33771;48.180;11.400;2023-12-20T03:23:54;6.30;99.90
48007;DHT22;33771;48.180;11.400;2023-12-20T03:26:20;6.20;99.90
48007;DHT22;33771;48.180;11.400;2023-12-20T03:28:47;6.30;99.90
48007;DHT22;33771;48.180;11.400;2023-12-20T03:31:13;6.30;99.90
48007;DHT22;33771;48.180;11.400;2023-12-20T03:33:39;6.30;99.90
48007;DHT22;33771;48.180;11.400;2023-12-20T03:36:05;6.30;99.90
48007;DHT22;33771;48.180;11.400;2023-12-20T03:38:30;6.40;99.90
48007;DHT22;33771;48.180;11.400;2023-12-20T03:40:56;6.40;99.90
48007;DHT22;33771;48.180;11.400;2023-12-20T03:43:21;6.40;99.90
48007;DHT22;33771;48.180;11.400;2023-12-20T03:45:47;6.50;99.90
48007;DHT22;33771;48.180;11.400;2023-12-20T03:48:12;6.50;99.90
48007;DHT22;33771;48.180;11.400;2023-12-20T03:50:38;6.40;99.90
48007;DHT22;33771;48.180;11.400;2023-12-20T03:53:03;6.40;99.90
48007;DHT22;33771;48.180;11.400;2023-12-20T03:55:29;6.40;99.90
48007;DHT22;33771;48.180;11.400;2023-12-20T03:57:55;6.30;99.90
48007;DHT22;33771;48.180;11.400;2023-12-20T04:00:20;6.30;99.90
48007;DHT22;33771;48.180;11.400;2023-12-20T04:02:46;6.30;99.90
48007;DHT22;33771;48.180;11.400;2023-12-20T04:05:11;6.30;99.90
48007;DHT22;33771;48.180;11.400;2023-12-20T04:07:37;6.30;99.90
48007;DHT22;33771;48.180;11.400;2023-12-20T04:10:03;6.20;99.90
48007;DHT22;33771;48.180;11.400;2023-12-20T04:12:29;6.10;99.90
48007;DHT22;33771;48.180;11.400;2023-12-20T04:14:55;6.00;99.90
48007;DHT22;33771;48.180;11.400;2023-12-20T04:17:20;5.90;99.90
48007;DHT22;33771;48.180;11.400;2023-12-20T04:19:51;5.90;99.90
48007;DHT22;33771;48.180;11.400;2023-12-20T04:22:17;5.80;99.90
48007;DHT22;33771;48.180;11.400;2023-12-20T04:24:43;5.80;99.90
48007;DHT22;33771;48.180;11.400;2023-12-20T04:27:08;5.70;99.90
48007;DHT22;33771;48.180;11.400;2023-12-20T04:29:34;5.90;99.90
48007;DHT22;33771;48.180;11.400;2023-12-20T04:32:00;5.80;99.90
48007;DHT22;33771;48.180;11.400;2023-12-20T04:34:25;5.70;99.90
48007;DHT22;33771;48.180;11.400;2023-12-20T04:36:51;5.70;99.90
48007;DHT22;33771;48.180;11.400;2023-12-20T04:39:17;5.80;99.90
48007;DHT22;33771;48.180;11.400;2023-12-20T04:41:42;5.80;99.90
48007;DHT22;33771;48.180;11.400;2023-12-20T04:44:08;5.80;99.90
48007;DHT22;33771;48.180;11.400;2023-12-20T04:46:33;5.70;99.90
48007;DHT22;33771;48.180;11.400;2023-12-20T04:48:59;5.70;99.90
48007;DHT22;33771;48.180;11.400;2023-12-20T04:51:24;5.70;99.90
48007;DHT22;33771;48.180;11.400;2023-12-20T04:53:50;5.60;99.90
48007;DHT22;33771;48.180;11.400;2023-12-20T04:56:15;5.60;99.90
48007;DHT22;33771;48.180;11.400;2023-12-20T04:58:42;5.50;99.90
48007;DHT22;33771;48.180;11.400;2023-12-20T05:01:08;5.50;99.90
48007;DHT22;33771;48.180;11.400;2023-12-20T05:03:34;5.40;99.90
48007;DHT22;33771;48.180;11.400;2023-12-20T05:06:00;5.40;99.90
48007;DHT22;33771;48.180;11.400;2023-12-20T05:08:25;5.30;99.90
48007;DHT22;33771;48.180;11.400;2023-12-20T05:10:54;5.30;99.90
48007;DHT22;33771;48.180;11.400;2023-12-20T05:13:19;5.30;99.90
48007;DHT22;33771;48.180;11.400;2023-12-20T05:15:45;5.20;99.90
48007;DHT22;33771;48.180;11.400;2023-12-20T05:18:11;5.10;99.90
48007;DHT22;33771;48.180;11.400;2023-12-20T05:20:36;5.10;99.90
48007;DHT22;33771;48.180;11.400;2023-12-20T05:23:02;5.10;99.90
48007;DHT22;33771;48.180;11.400;2023-12-20T05:25:28;5.10;99.90
48007;DHT22;33771;48.180;11.400;2023-12-20T05:27:53;5.10;99.90
48007;DHT22;33771;48.180;11.400;2023-12-20T05:30:19;5.00;99.90
48007;DHT22;33771;48.180;11.400;2023-12-20T05:32:44;5.10;99.90
48007;DHT22;33771;48.180;11.400;2023-12-20T05:35:10;5.00;99.90
48007;DHT22;33771;48.180;11.400;2023-12-20T05:37:35;5.00;99.90
48007;DHT22;33771;48.180;11.400;2023-12-20T05:40:01;4.90;99.90
48007;DHT22;33771;48.180;11.400;2023-12-20T05:42:26;5.00;99.90
48007;DHT22;33771;48.180;11.400;2023-12-20T05:44:52;5.00;99.90
48007;DHT22;33771;48.180;11.400;2023-12-20T05:47:18;5.00;99.90
48007;DHT22;33771;48.180;11.400;2023-12-20T05:49:44;4.90;99.90
48007;DHT22;33771;48.180;11.400;2023-12-20T05:52:10;4.90;99.90
48007;DHT22;33771;48.180;11.400;2023-12-20T05:54:36;4.90;99.90
48007;DHT22;33771;48.180;11.400;2023-12-20T05:57:01;4.90;99.90
48007;DHT22;33771;48.180;11.400;2023-12-20T05:59:27;4.90;99.90
48007;DHT22;33771;48.180;11.400;2023-12-20T06:01:52;4.80;99.90
48007;DHT22;33771;48.180;11.400;2023-12-20T06:04:18;4.80;99.90
48007;DHT22;33771;48.180;11.400;2023-12-20T06:06:44;4.70;99.90
48007;DHT22;33771;48.180;11.400;2023-12-20T06:09:10;4.70;99.90
48007;DHT22;33771;48.180;11.400;2023-12-20T06:11:35;4.60;99.90
48007;DHT22;33771;48.180;11.400;2023-12-20T06:14:01;4.60;99.90
48007;DHT22;33771;48.180;11.400;2023-12-20T06:16:26;4.60;99.90
48007;DHT22;33771;48.180;11.400;2023-12-20T06:18:54;4.60;99.90
48007;DHT22;33771;48.180;11.400;2023-12-20T06:21:20;4.50;99.90
48007;DHT22;33771;48.180;11.400;2023-12-20T06:23:46;4.50;99.90
48007;DHT22;33771;48.180;11.400;2023-12-20T06:26:11;4.50;99.90
48007;DHT22;33771;48.180;11.400;2023-12-20T06:28:37;4.50;99.90
48007;DHT22;33771;48.180;11.400;2023-12-20T06:31:02;4.50;99.90
48007;DHT22;33771;48.180;11.400;2023-12-20T06:33:29;4.50;99.90
48007;DHT22;33771;48.180;11.400;2023-12-20T06:35:56;4.50;99.90
48007;DHT22;33771;48.180;11.400;2023-12-20T06:38:22;4.50;99.90
48007;DHT22;33771;48.180;11.400;2023-12-20T06:40:47;4.40;99.90
48007;DHT22;33771;48.180;11.400;2023-12-20T06:43:13;4.40;99.90
48007;DHT22;33771;48.180;11.400;2023-12-20T06:45:39;4.40;99.90
48007;DHT22;33771;48.180;11.400;2023-12-20T06:48:05;4.40;99.90
48007;DHT22;33771;48.180;11.400;2023-12-20T06:50:30;4.40;99.90
48007;DHT22;33771;48.180;11.400;2023-12-20T06:52:56;4.40;99.90
48007;DHT22;33771;48.180;11.400;2023-12-20T06:55:22;4.30;99.90
48007;DHT22;33771;48.180;11.400;2023-12-20T06:57:48;4.30;99.90
48007;DHT22;33771;48.180;11.400;2023-12-20T07:00:14;4.30;99.90
48007;DHT22;33771;48.180;11.400;2023-12-20T07:02:40;4.30;99.90
48007;DHT22;33771;48.180;11.400;2023-12-20T07:05:05;4.30;99.90
48007;DHT22;33771;48.180;11.400;2023-12-20T07:07:31;4.20;99.90
48007;DHT22;33771;48.180;11.400;2023-12-20T07:09:57;4.20;99.90
48007;DHT22;33771;48.180;11.400;2023-12-20T07:12:22;4.20;99.90
48007;DHT22;33771;48.180;11.400;2023-12-20T07:14:48;4.30;99.90
48007;DHT22;33771;48.180;11.400;2023-12-20T07:17:13;4.20;99.90
48007;DHT22;33771;48.180;11.400;2023-12-20T07:19:41;4.20;99.90
48007;DHT22;33771;48.180;11.400;2023-12-20T07:22:07;4.30;99.90
48007;DHT22;33771;48.180;11.400;2023-12-20T07:24:32;4.20;99.90
48007;DHT22;33771;48.180;11.400;2023-12-20T07:26:59;4.20;99.90
48007;DHT22;33771;48.180;11.400;2023-12-20T07:29:25;4.20;99.90
48007;DHT22;33771;48.180;11.400;2023-12-20T07:31:57;4.20;99.90
48007;DHT22;33771;48.180;11.400;2023-12-20T07:34:23;4.20;99.90
48007;DHT22;33771;48.180;11.400;2023-12-20T07:36:48;4.20;99.90
48007;DHT22;33771;48.180;11.400;2023-12-20T07:39:14;4.20;99.90
48007;DHT22;33771;48.180;11.400;2023-12-20T07:41:40;4.20;99.90
48007;DHT22;33771;48.180;11.400;2023-12-20T07:44:06;4.20;99.90
48007;DHT22;33771;48.180;11.400;2023-12-20T07:46:31;4.20;99.90
48007;DHT22;33771;48.180;11.400;2023-12-20T07:48:57;4.20;99.90
48007;DHT22;33771;48.180;11.400;2023-12-20T07:51:23;4.20;99.90
48007;DHT22;33771;48.180;11.400;2023-12-20T07:53:49;4.20;99.90
48007;DHT22;33771;48.180;11.400;2023-12-20T07:56:16;4.10;99.90
48007;DHT22;33771;48.180;11.400;2023-12-20T07:58:42;4.20;99.90
48007;DHT22;33771;48.180;11.400;2023-12-20T08:01:08;4.20;99.90
48007;DHT22;33771;48.180;11.400;2023-12-20T08:03:33;4.10;99.90
48007;DHT22;33771;48.180;11.400;2023-12-20T08:05:59;4.10;99.90
48007;DHT22;33771;48.180;11.400;2023-12-20T08:08:25;4.20;99.90
48007;DHT22;33771;48.180;11.400;2023-12-20T08:10:50;4.20;99.90
48007;DHT22;33771;48.180;11.400;2023-12-20T08:13:16;4.20;99.90
48007;DHT22;33771;48.180;11.400;2023-12-20T08:15:41;4.20;99.90
48007;DHT22;33771;48.180;11.400;2023-12-20T08:18:07;4.10;99.90
48007;DHT22;33771;48.180;11.400;2023-12-20T08:20:33;4.10;99.90
48007;DHT22;33771;48.180;11.400;2023-12-20T08:22:58;4.10;99.90
48007;DHT22;33771;48.180;11.400;2023-12-20T08:25:24;4.10;99.90
48007;DHT22;33771;48.180;11.400;2023-12-20T08:27:49;4.10;99.90
48007;DHT22;33771;48.180;11.400;2023-12-20T08:30:15;4.10;99.90
48007;DHT22;33771;48.180;11.400;2023-12-20T08:32:43;4.20;99.90
48007;DHT22;33771;48.180;11.400;2023-12-20T08:35:08;4.20;99.90
48007;DHT22;33771;48.180;11.400;2023-12-20T08:37:34;4.20;99.90
48007;DHT22;33771;48.180;11.400;2023-12-20T08:40:01;4.20;99.90
48007;DHT22;33771;48.180;11.400;2023-12-20T08:42:26;4.20;99.90
48007;DHT22;33771;48.180;11.400;2023-12-20T08:44:56;4.20;99.90
48007;DHT22;33771;48.180;11.400;2023-12-20T08:47:22;4.20;99.90
48007;DHT22;33771;48.180;11.400;2023-12-20T08:49:48;4.20;99.90
48007;DHT22;33771;48.180;11.400;2023-12-20T08:52:13;4.20;99.90
48007;DHT22;33771;48.180;11.400;2023-12-20T08:54:39;4.20;99.90
48007;DHT22;33771;48.180;11.400;2023-12-20T08:57:05;4.20;99.90
48007;DHT22;33771;48.180;11.400;2023-12-20T08:59:32;4.30;99.90
48007;DHT22;33771;48.180;11.400;2023-12-20T09:01:57;4.30;99.90
48007;DHT22;33771;48.180;11.400;2023-12-20T09:04:23;4.30;99.90
48007;DHT22;33771;48.180;11.400;2023-12-20T09:06:49;4.30;99.90
48007;DHT22;33771;48.180;11.400;2023-12-20T09:09:14;4.30;99.90
48007;DHT22;33771;48.180;11.400;2023-12-20T09:11:41;4.30;99.90
48007;DHT22;33771;48.180;11.400;2023-12-20T09:14:07;4.30;99.90
48007;DHT22;33771;48.180;11.400;2023-12-20T09:16:32;4.30;99.90
48007;DHT22;33771;48.180;11.400;2023-12-20T09:18:58;4.30;99.90
48007;DHT22;33771;48.180;11.400;2023-12-20T09:21:24;4.30;99.90
48007;DHT22;33771;48.180;11.400;2023-12-20T09:23:50;4.30;99.90
48007;DHT22;33771;48.180;11.400;2023-12-20T09:26:15;4.30;99.90
48007;DHT22;33771;48.180;11.400;2023-12-20T09:28:41;4.30;99.90
48007;DHT22;33771;48.180;11.400;2023-12-20T09:31:07;4.30;99.90
48007;DHT22;33771;48.180;11.400;2023-12-20T09:33:33;4.30;99.90
48007;DHT22;33771;48.180;11.400;2023-12-20T09:35:58;4.30;99.90
48007;DHT22;33771;48.180;11.400;2023-12-20T09:38:24;4.30;99.90
48007;DHT22;33771;48.180;11.400;2023-12-20T09:40:50;4.30;99.90
48007;DHT22;33771;48.180;11.400;2023-12-20T09:43:19;4.30;99.90
48007;DHT22;33771;48.180;11.400;2023-12-20T09:45:46;4.30;99.90
48007;DHT22;33771;48.180;11.400;2023-12-20T09:48:12;4.40;99.90
48007;DHT22;33771;48.180;11.400;2023-12-20T09:50:40;4.30;99.90
48007;DHT22;33771;48.180;11.400;2023-12-20T09:53:08;4.40;99.90
48007;DHT22;33771;48.180;11.400;2023-12-20T09:55:36;4.40;99.90
48007;DHT22;33771;48.180;11.400;2023-12-20T09:58:02;4.50;99.90
48007;DHT22;33771;48.180;11.400;2023-12-20T10:00:28;4.50;99.90
48007;DHT22;33771;48.180;11.400;2023-12-20T10:02:57;4.50;99.90
48007;DHT22;33771;48.180;11.400;2023-12-20T10:05:30;4.50;99.90
48007;DHT22;33771;48.180;11.400;2023-12-20T10:07:55;4.60;99.90
48007;DHT22;33771;48.180;11.400;2023-12-20T10:10:22;4.60;99.90
48007;DHT22;33771;48.180;11.400;2023-12-20T10:13:16;4.60;99.90
48007;DHT22;33771;48.180;11.400;2023-12-20T10:15:42;4.80;99.90
48007;DHT22;33771;48.180;11.400;2023-12-20T10:18:08;4.90;99.90
48007;DHT22;33771;48.180;11.400;2023-12-20T10:20:34;5.00;99.90
48007;DHT22;33771;48.180;11.400;2023-12-20T10:23:00;5.00;99.90
48007;DHT22;33771;48.180;11.400;2023-12-20T10:25:26;5.00;99.90
48007;DHT22;33771;48.180;11.400;2023-12-20T10:28:13;5.00;99.90
48007;DHT22;33771;48.180;11.400;2023-12-20T10:30:39;5.10;99.90
48007;DHT22;33771;48.180;11.400;2023-12-20T10:33:08;5.10;99.90
48007;DHT22;33771;48.180;11.400;2023-12-20T10:35:36;5.10;99.90
48007;DHT22;33771;48.180;11.400;2023-12-20T10:38:04;5.10;99.90
48007;DHT22;33771;48.180;11.400;2023-12-20T10:40:36;5.10;99.90
48007;DHT22;33771;48.180;11.400;2023-12-20T10:43:02;5.10;99.90
48007;DHT22;33771;48.180;11.400;2023-12-20T10:45:28;5.10;99.90
48007;DHT22;33771;48.180;11.400;2023-12-20T10:47:54;5.10;99.90
48007;DHT22;33771;48.180;11.400;2023-12-20T10:50:21;5.10;99.90
48007;DHT22;33771;48.180;11.400;2023-12-20T10:52:47;5.10;99.90
48007;DHT22;33771;48.180;11.400;2023-12-20T10:55:13;5.10;99.90
48007;DHT22;33771;48.180;11.400;2023-12-20T10:57:39;5.10;99.90
48007;DHT22;33771;48.180;11.400;2023-12-20T11:00:08;5.20;99.90
48007;DHT22;33771;48.180;11.400;2023-12-20T11:02:39;5.20;99.90
48007;DHT22;33771;48.180;11.400;2023-12-20T11:05:26;5.20;99.90
48007;DHT22;33771;48.180;11.400;2023-12-20T11:11:18;5.20;99.90
48007;DHT22;33771;48.180;11.400;2023-12-20T11:13:47;5.20;99.90
48007;DHT22;33771;48.180;11.400;2023-12-20T11:16:13;5.20;99.90
48007;DHT22;33771;48.180;11.400;2023-12-20T11:18:41;5.30;99.90
48007;DHT22;33771;48.180;11.400;2023-12-20T11:21:06;5.30;99.90
48007;DHT22;33771;48.180;11.400;2023-12-20T11:23:32;5.40;99.90
48007;DHT22;33771;48.180;11.400;2023-12-20T11:26:02;5.30;99.90
48007;DHT22;33771;48.180;11.400;2023-12-20T11:28:28;5.40;99.90
48007;DHT22;33771;48.180;11.400;2023-12-20T11:30:56;5.40;99.90
48007;DHT22;33771;48.180;11.400;2023-12-20T11:33:45;5.50;99.90
48007;DHT22;33771;48.180;11.400;2023-12-20T11:36:18;5.50;99.90
48007;DHT22;33771;48.180;11.400;2023-12-20T11:38:58;5.60;99.90
48007;DHT22;33771;48.180;11.400;2023-12-20T11:41:26;5.70;99.90
48007;DHT22;33771;48.180;11.400;2023-12-20T11:43:55;5.80;99.90
48007;DHT22;33771;48.180;11.400;2023-12-20T11:46:21;5.70;99.90
48007;DHT22;33771;48.180;11.400;2023-12-20T11:48:48;5.70;99.90
48007;DHT22;33771;48.180;11.400;2023-12-20T11:51:14;5.70;99.90
48007;DHT22;33771;48.180;11.400;2023-12-20T11:53:40;5.70;99.90
48007;DHT22;33771;48.180;11.400;2023-12-20T11:56:06;5.80;99.90
48007;DHT22;33771;48.180;11.400;2023-12-20T11:58:33;5.80;99.90
48007;DHT22;33771;48.180;11.400;2023-12-20T12:00:59;5.80;99.90
48007;DHT22;33771;48.180;11.400;2023-12-20T12:03:25;5.80;99.90
48007;DHT22;33771;48.180;11.400;2023-12-20T12:05:51;5.90;99.90
48007;DHT22;33771;48.180;11.400;2023-12-20T12:08:19;5.90;99.90
48007;DHT22;33771;48.180;11.400;2023-12-20T12:10:45;5.90;99.90
48007;DHT22;33771;48.180;11.400;2023-12-20T12:13:10;5.90;99.90
48007;DHT22;33771;48.180;11.400;2023-12-20T12:15:37;6.00;99.90
48007;DHT22;33771;48.180;11.400;2023-12-20T12:18:03;6.00;99.90
48007;DHT22;33771;48.180;11.400;2023-12-20T12:20:30;6.00;99.90
48007;DHT22;33771;48.180;11.400;2023-12-20T12:23:06;6.00;99.90
48007;DHT22;33771;48.180;11.400;2023-12-20T12:25:34;6.00;99.90
48007;DHT22;33771;48.180;11.400;2023-12-20T12:28:00;6.10;99.90
48007;DHT22;33771;48.180;11.400;2023-12-20T12:30:26;6.10;99.90
48007;DHT22;33771;48.180;11.400;2023-12-20T12:32:52;6.10;99.90
48007;DHT22;33771;48.180;11.400;2023-12-20T12:35:18;6.00;99.90
48007;DHT22;33771;48.180;11.400;2023-12-20T12:37:44;6.00;99.90
48007;DHT22;33771;48.180;11.400;2023-12-20T12:40:14;5.90;99.90
48007;DHT22;33771;48.180;11.400;2023-12-20T12:42:41;5.90;99.90
48007;DHT22;33771;48.180;11.400;2023-12-20T12:45:07;5.80;99.90
48007;DHT22;33771;48.180;11.400;2023-12-20T12:47:34;5.70;99.90
48007;DHT22;33771;48.180;11.400;2023-12-20T12:49:59;5.60;99.90
48007;DHT22;33771;48.180;11.400;2023-12-20T12:52:25;5.50;99.90
48007;DHT22;33771;48.180;11.400;2023-12-20T12:54:52;5.40;99.90
48007;DHT22;33771;48.180;11.400;2023-12-20T12:57:17;5.20;99.90
48007;DHT22;33771;48.180;11.400;2023-12-20T12:59:43;5.10;99.90
48007;DHT22;33771;48.180;11.400;2023-12-20T13:02:12;5.00;99.90
48007;DHT22;33771;48.180;11.400;2023-12-20T13:04:37;4.90;99.90
48007;DHT22;33771;48.180;11.400;2023-12-20T13:07:03;4.80;99.90
48007;DHT22;33771;48.180;11.400;2023-12-20T13:09:28;4.70;99.90
48007;DHT22;33771;48.180;11.400;2023-12-20T13:11:54;4.60;99.90
48007;DHT22;33771;48.180;11.400;2023-12-20T13:14:20;4.60;99.90
48007;DHT22;33771;48.180;11.400;2023-12-20T13:16:45;4.60;99.90
48007;DHT22;33771;48.180;11.400;2023-12-20T13:19:11;4.50;99.90
48007;DHT22;33771;48.180;11.400;2023-12-20T13:21:37;4.50;99.90
48007;DHT22;33771;48.180;11.400;2023-12-20T13:24:03;4.50;99.90
48007;DHT22;33771;48.180;11.400;2023-12-20T13:26:28;4.50;99.90
48007;DHT22;33771;48.180;11.400;2023-12-20T13:28:54;4.40;99.90
48007;DHT22;33771;48.180;11.400;2023-12-20T13:31:20;4.50;99.90
48007;DHT22;33771;48.180;11.400;2023-12-20T13:33:46;4.40;99.90
48007;DHT22;33771;48.180;11.400;2023-12-20T13:36:12;4.40;99.90
48007;DHT22;33771;48.180;11.400;2023-12-20T13:38:37;4.40;99.90
48007;DHT22;33771;48.180;11.400;2023-12-20T13:41:03;4.50;99.90
48007;DHT22;33771;48.180;11.400;2023-12-20T13:43:30;4.50;99.90
48007;DHT22;33771;48.180;11.400;2023-12-20T13:45:57;4.50;99.90
48007;DHT22;33771;48.180;11.400;2023-12-20T13:48:22;4.50;99.90
48007;DHT22;33771;48.180;11.400;2023-12-20T13:50:48;4.50;99.90
48007;DHT22;33771;48.180;11.400;2023-12-20T13:53:13;4.60;99.90
48007;DHT22;33771;48.180;11.400;2023-12-20T13:55:39;4.60;99.90
48007;DHT22;33771;48.180;11.400;2023-12-20T13:58:05;4.50;99.90
48007;DHT22;33771;48.180;11.400;2023-12-20T14:00:31;4.50;99.90
48007;DHT22;33771;48.180;11.400;2023-12-20T14:02:56;4.50;99.90
48007;DHT22;33771;48.180;11.400;2023-12-20T14:05:22;4.50;99.90
48007;DHT22;33771;48.180;11.400;2023-12-20T14:07:48;4.50;99.90
48007;DHT22;33771;48.180;11.400;2023-12-20T14:10:14;4.50;99.90
48007;DHT22;33771;48.180;11.400;2023-12-20T14:12:40;4.50;99.90
48007;DHT22;33771;48.180;11.400;2023-12-20T14:15:06;4.40;99.90
48007;DHT22;33771;48.180;11.400;2023-12-20T14:17:39;4.40;99.90
48007;DHT22;33771;48.180;11.400;2023-12-20T14:20:06;4.40;99.90
48007;DHT22;33771;48.180;11.400;2023-12-20T14:22:32;4.40;99.90
48007;DHT22;33771;48.180;11.400;2023-12-20T14:24:58;4.40;99.90
48007;DHT22;33771;48.180;11.400;2023-12-20T14:27:23;4.40;99.90
48007;DHT22;33771;48.180;11.400;2023-12-20T14:29:53;4.40;99.90
48007;DHT22;33771;48.180;11.400;2023-12-20T14:32:19;4.40;99.90
48007;DHT22;33771;48.180;11.400;2023-12-20T14:34:44;4.40;99.90
48007;DHT22;33771;48.180;11.400;2023-12-20T14:37:10;4.40;99.90
48007;DHT22;33771;48.180;11.400;2023-12-20T14:39:35;4.40;99.90
48007;DHT22;33771;48.180;11.400;2023-12-20T14:42:09;4.40;99.90
48007;DHT22;33771;48.180;11.400;2023-12-20T14:44:38;4.40;99.90
48007;DHT22;33771;48.180;11.400;2023-12-20T14:47:04;4.40;99.90
48007;DHT22;33771;48.180;11.400;2023-12-20T14:49:30;4.40;99.90
48007;DHT22;33771;48.180;11.400;2023-12-20T14:51:56;4.40;99.90
48007;DHT22;33771;48.180;11.400;2023-12-20T14:54:22;4.40;99.90
48007;DHT22;33771;48.180;11.400;2023-12-20T14:56:47;4.40;99.90
48007;DHT22;33771;48.180;11.400;2023-12-20T14:59:13;4.30;99.90
48007;DHT22;33771;48.180;11.400;2023-12-20T15:01:39;4.30;99.90
48007;DHT22;33771;48.180;11.400;2023-12-20T15:04:06;4.30;99.90
48007;DHT22;33771;48.180;11.400;2023-12-20T15:06:32;4.30;99.90
48007;DHT22;33771;48.180;11.400;2023-12-20T15:09:01;4.20;99.90
48007;DHT22;33771;48.180;11.400;2023-12-20T15:11:30;4.20;99.90
48007;DHT22;33771;48.180;11.400;2023-12-20T15:13:56;4.20;99.90
48007;DHT22;33771;48.180;11.400;2023-12-20T15:16:22;4.20;99.90
48007;DHT22;33771;48.180;11.400;2023-12-20T15:18:48;4.30;99.90
48007;DHT22;33771;48.180;11.400;2023-12-20T15:21:15;4.30;99.90
48007;DHT22;33771;48.180;11.400;2023-12-20T15:23:41;4.30;99.90
48007;DHT22;33771;48.180;11.400;2023-12-20T15:26:18;4.30;99.90
48007;DHT22;33771;48.180;11.400;2023-12-20T15:28:43;4.30;99.90